Time;durP1;ratioP1;P1;durP2;ratioP2;P2;SDS_P1;SDS_P2;PMS_P1;PMS_P2;Temp;Humidity;BMP_temperature;BMP_pressure;BME280_temperature;BME280_humidity;BME280_pressure;Samples;Min_cycle;Max_cycle;Signal;HPM_P1;HPM_P2
2023/04/13 00:00:34;;;;;;;68.60;31.57;;;;;;;5.29;85.10;99149.69;4212811;28;20251;-67
2023/04/13 00:03:02;;;;;;;69.20;31.47;;;;;;;5.31;85.29;99164.66;4218405;28;20535;-68
2023/04/13 00:05:30;;;;;;;74.13;34.30;;;;;;;5.25;85.09;99162.53;4188731;28;20346;-68
2023/04/13 00:08:01;;;;;;;72.00;34.37;;;;;;;5.19;85.24;99153.22;4220722;28;20232;-70
2023/04/13 00:10:35;;;;;;;78.23;35.13;;;;;;;5.16;85.33;99150.00;4220861;28;21790;-69
2023/04/13 00:13:03;;;;;;;77.10;34.73;;;;;;;5.08;85.25;99148.00;4203982;28;20390;-68
2023/04/13 00:15:33;;;;;;;79.57;35.63;;;;;;;4.98;85.90;99149.88;4206171;28;20236;-68
2023/04/13 00:18:00;;;;;;;78.37;34.40;;;;;;;5.01;86.04;99153.13;4229606;28;20276;-70
2023/04/13 00:20:27;;;;;;;75.03;34.43;;;;;;;5.10;85.73;99147.91;4214722;28;20232;-68
2023/04/13 00:22:55;;;;;;;75.30;34.50;;;;;;;5.10;85.64;99139.84;4211562;28;20309;-67
2023/04/13 00:25:21;;;;;;;70.20;32.40;;;;;;;5.10;85.29;99148.72;4226644;28;20237;-67
2023/04/13 00:27:49;;;;;;;70.93;33.10;;;;;;;5.04;85.72;99147.47;4221223;28;20783;-69
2023/04/13 00:30:16;;;;;;;74.90;33.40;;;;;;;4.95;85.74;99140.25;4214747;28;20313;-68
2023/04/13 00:32:44;;;;;;;68.27;33.00;;;;;;;4.99;85.81;99148.88;4212199;28;20432;-68
2023/04/13 00:35:14;;;;;;;70.53;33.50;;;;;;;5.02;86.05;99151.28;4206188;28;20586;-68
2023/04/13 00:37:46;;;;;;;67.77;32.70;;;;;;;5.03;85.63;99150.28;4224481;28;20250;-68
2023/04/13 00:40:15;;;;;;;76.97;35.17;;;;;;;4.96;85.66;99157.22;4207969;28;21084;-70
2023/04/13 00:42:45;;;;;;;73.83;35.50;;;;;;;4.90;85.74;99150.59;4216755;28;20301;-68
2023/04/13 00:45:12;;;;;;;76.20;34.97;;;;;;;4.88;85.88;99149.88;4199298;28;20239;-66
2023/04/13 00:47:42;;;;;;;71.93;34.33;;;;;;;4.92;85.83;99149.44;4216007;28;20231;-68
2023/04/13 00:50:09;;;;;;;68.20;33.47;;;;;;;4.98;85.39;99153.41;4219162;28;20239;-71
2023/04/13 00:52:39;;;;;;;73.53;33.80;;;;;;;4.96;85.38;99146.50;4218137;28;21936;-67
2023/04/13 00:55:06;;;;;;;73.50;33.30;;;;;;;4.91;85.61;99146.91;4218705;28;20235;-68
2023/04/13 00:57:34;;;;;;;68.53;31.63;;;;;;;4.92;85.90;99146.75;4211684;28;20236;-68
2023/04/13 01:00:06;;;;;;;68.23;32.67;;;;;;;4.84;86.03;99143.13;4215833;28;20665;-68
2023/04/13 01:02:33;;;;;;;71.77;34.43;;;;;;;4.86;85.87;99139.31;4196322;28;20248;-68
2023/04/13 01:05:01;;;;;;;81.77;34.07;;;;;;;4.91;85.63;99138.88;4217821;28;20951;-67
2023/04/13 01:07:46;;;;;;;69.87;33.10;;;;;;;4.88;85.35;99141.81;4234998;28;21807;-67
2023/04/13 01:10:42;;;;;;;69.37;32.40;;;;;;;4.77;85.90;99137.47;4218594;28;20532;-68
2023/04/13 01:13:19;;;;;;;76.07;33.57;;;;;;;4.79;85.78;99131.97;4218177;28;21210;-68
2023/04/13 01:16:02;;;;;;;71.67;33.73;;;;;;;4.81;85.49;99135.34;4217883;28;20481;-68
2023/04/13 01:18:32;;;;;;;69.50;33.87;;;;;;;4.75;85.65;99123.38;4217836;28;21160;-68
2023/04/13 01:20:59;;;;;;;66.83;31.77;;;;;;;4.71;85.64;99132.69;4205679;28;20818;-68
2023/04/13 01:23:55;;;;;;;66.43;32.67;;;;;;;4.72;85.69;99124.47;4220442;28;20243;-69
2023/04/13 01:26:22;;;;;;;71.60;32.07;;;;;;;4.76;85.66;99122.38;4228268;28;20458;-67
2023/04/13 01:28:50;;;;;;;71.17;31.70;;;;;;;4.67;85.74;99115.19;4216985;28;20246;-69
2023/04/13 01:31:16;;;;;;;67.83;31.10;;;;;;;4.73;85.55;99122.66;4213472;28;20293;-67
2023/04/13 01:33:45;;;;;;;69.40;33.00;;;;;;;4.75;85.12;99116.16;4203438;28;20596;-70
2023/04/13 01:36:13;;;;;;;64.90;32.10;;;;;;;4.70;85.24;99131.84;4217205;28;21237;-67
2023/04/13 01:38:39;;;;;;;65.03;31.67;;;;;;;4.64;85.39;99121.69;4207492;28;20248;-67
2023/04/13 01:41:07;;;;;;;69.17;33.17;;;;;;;4.58;85.70;99120.41;4223988;28;20235;-69
2023/04/13 01:43:34;;;;;;;64.33;31.17;;;;;;;4.64;85.63;99123.50;4206834;28;22265;-68
2023/04/13 01:46:08;;;;;;;61.50;30.87;;;;;;;4.63;85.52;99117.31;4218949;28;22901;-67
2023/04/13 01:48:47;;;;;;;72.50;31.37;;;;;;;4.57;85.58;99124.09;4218738;28;20240;-68
2023/04/13 01:51:23;;;;;;;73.37;32.73;;;;;;;4.57;85.68;99113.38;4214782;28;20579;-68
2023/04/13 01:54:11;;;;;;;68.67;32.30;;;;;;;4.59;85.34;99106.03;4218120;28;20340;-68
2023/04/13 01:56:38;;;;;;;68.43;31.63;;;;;;;4.56;85.35;99116.19;4211144;28;20342;-68
2023/04/13 01:59:05;;;;;;;67.97;31.53;;;;;;;4.51;85.58;99107.72;4222108;28;20425;-68
2023/04/13 02:01:32;;;;;;;66.27;32.80;;;;;;;4.51;85.56;99107.72;4215744;28;20968;-69
2023/04/13 02:03:59;;;;;;;66.70;31.53;;;;;;;4.48;85.76;99113.38;4216060;28;20352;-67
2023/04/13 02:06:26;;;;;;;61.60;30.60;;;;;;;4.44;85.34;99110.13;4237625;28;20739;-68
2023/04/13 02:08:53;;;;;;;69.50;31.43;;;;;;;4.47;85.47;99109.00;4221511;28;20548;-70
2023/04/13 02:11:20;;;;;;;67.40;32.00;;;;;;;4.40;85.41;99098.84;4221133;28;20620;-68
2023/04/13 02:13:47;;;;;;;66.90;32.47;;;;;;;4.41;85.54;99103.22;4220503;28;20321;-66
2023/04/13 02:16:14;;;;;;;63.17;30.90;;;;;;;4.47;85.54;99100.97;4213938;28;21377;-68
2023/04/13 02:18:41;;;;;;;66.77;32.33;;;;;;;4.44;85.39;99105.59;4213874;28;20242;-68
2023/04/13 02:21:08;;;;;;;64.17;30.33;;;;;;;4.49;85.30;99104.34;4224925;28;20548;-68
2023/04/13 02:23:35;;;;;;;67.93;31.33;;;;;;;4.48;85.39;99099.97;4224759;28;20227;-69
2023/04/13 02:26:05;;;;;;;68.87;32.40;;;;;;;4.46;85.34;99099.25;4205226;28;22983;-70
2023/04/13 02:28:32;;;;;;;68.40;32.80;;;;;;;4.43;85.10;99103.91;4222781;28;20245;-69
2023/04/13 02:30:59;;;;;;;67.37;30.93;;;;;;;4.38;85.44;99100.81;4220374;28;22829;-68
2023/04/13 02:33:30;;;;;;;61.53;30.53;;;;;;;4.47;85.39;99095.59;4214148;28;22454;-68
2023/04/13 02:35:57;;;;;;;61.87;30.40;;;;;;;4.76;84.62;99103.59;4227452;28;20525;-69
2023/04/13 02:38:25;;;;;;;68.77;31.70;;;;;;;5.08;84.00;99100.59;4219129;28;20855;-68
2023/04/13 02:40:56;;;;;;;61.47;30.47;;;;;;;5.25;83.60;99103.50;4214967;28;20319;-69
2023/04/13 02:43:22;;;;;;;58.13;30.07;;;;;;;5.11;83.82;99098.59;4223111;28;20246;-69
2023/04/13 02:45:49;;;;;;;66.23;32.13;;;;;;;5.03;84.47;99104.69;4225911;28;22876;-67
2023/04/13 02:48:15;;;;;;;68.07;31.43;;;;;;;4.86;84.30;99115.16;4226772;28;20235;-66
2023/04/13 02:50:42;;;;;;;60.20;29.73;;;;;;;4.86;84.97;99117.00;4221188;28;20234;-68
2023/04/13 02:53:08;;;;;;;64.30;30.20;;;;;;;5.01;84.64;99112.91;4227187;28;22377;-69
2023/04/13 02:55:35;;;;;;;69.87;31.07;;;;;;;4.92;84.83;99111.91;4225358;28;20231;-70
2023/04/13 02:58:03;;;;;;;60.33;29.90;;;;;;;4.74;84.85;99116.31;4223014;28;20234;-69
2023/04/13 03:00:31;;;;;;;56.67;28.40;;;;;;;4.67;85.56;99120.56;4223868;28;20439;-68
2023/04/13 03:02:58;;;;;;;60.40;29.70;;;;;;;4.55;85.13;99127.91;4222102;28;20239;-66
2023/04/13 03:05:25;;;;;;;71.50;31.03;;;;;;;4.52;85.56;99134.38;4216253;28;20240;-71
2023/04/13 03:07:52;;;;;;;71.77;31.17;;;;;;;4.53;85.62;99140.59;4228458;28;21478;-66
2023/04/13 03:10:18;;;;;;;60.23;30.07;;;;;;;4.54;85.02;99137.75;4228120;28;20295;-67
2023/04/13 03:12:45;;;;;;;61.67;29.53;;;;;;;4.55;84.91;99146.66;4226917;28;20231;-70
2023/04/13 03:15:11;;;;;;;64.83;30.57;;;;;;;4.52;84.88;99150.47;4226528;28;21834;-69
2023/04/13 03:17:40;;;;;;;65.40;29.83;;;;;;;4.46;85.21;99156.38;4224739;28;20251;-66
2023/04/13 03:20:15;;;;;;;65.80;29.77;;;;;;;4.48;85.27;99153.56;4208710;28;21229;-65
2023/04/13 03:22:43;;;;;;;63.87;29.50;;;;;;;4.48;85.14;99165.13;4227710;28;22863;-70
2023/04/13 03:25:11;;;;;;;69.30;30.80;;;;;;;4.48;84.42;99167.81;4224929;28;21223;-68
2023/04/13 03:27:37;;;;;;;63.07;29.23;;;;;;;4.39;84.74;99166.81;4221918;28;23491;-68
2023/04/13 03:30:05;;;;;;;65.40;29.60;;;;;;;4.37;84.73;99167.94;4229787;28;20246;-66
2023/04/13 03:32:31;;;;;;;71.33;30.03;;;;;;;4.46;84.73;99167.09;4227416;28;20231;-67
2023/04/13 03:34:58;;;;;;;65.40;28.20;;;;;;;4.48;84.73;99165.13;4223367;28;21378;-69
2023/04/13 03:37:28;;;;;;;65.97;30.43;;;;;;;4.46;85.16;99166.25;4225963;28;20265;-69
2023/04/13 03:39:56;;;;;;;76.53;31.10;;;;;;;4.64;85.26;99169.09;4212843;28;21070;-68
2023/04/13 03:42:23;;;;;;;73.57;31.50;;;;;;;4.57;84.40;99166.97;4220958;28;20236;-69
2023/04/13 03:44:50;;;;;;;64.83;30.27;;;;;;;4.48;84.67;99172.31;4202581;28;20233;-67
2023/04/13 03:47:16;;;;;;;63.53;28.03;;;;;;;4.41;85.18;99174.69;4220901;28;25668;-70
2023/04/13 03:49:43;;;;;;;62.57;29.87;;;;;;;4.41;85.55;99183.59;4225686;28;20659;-69
2023/04/13 03:52:09;;;;;;;83.20;31.13;;;;;;;4.41;85.50;99185.41;4217488;28;20239;-67
2023/04/13 03:54:36;;;;;;;65.90;30.23;;;;;;;4.45;86.01;99189.53;4225088;28;20312;-70
2023/04/13 03:57:03;;;;;;;75.40;30.87;;;;;;;4.57;85.29;99191.09;4228531;28;20629;-71
2023/04/13 03:59:30;;;;;;;70.07;31.97;;;;;;;4.58;85.54;99197.28;4210623;28;20407;-70
2023/04/13 04:01:57;;;;;;;76.87;29.93;;;;;;;4.70;85.24;99195.31;4240423;28;20239;-67
2023/04/13 04:04:24;;;;;;;66.10;30.27;;;;;;;4.76;85.30;99209.03;4211726;28;20409;-68
2023/04/13 04:06:50;;;;;;;66.40;30.43;;;;;;;4.80;84.86;99211.41;4223766;28;21802;-67
2023/04/13 04:09:17;;;;;;;76.70;31.60;;;;;;;4.72;84.79;99221.00;4218379;28;20341;-67
2023/04/13 04:11:44;;;;;;;64.43;30.83;;;;;;;4.69;85.49;99215.94;4227190;28;20309;-67
2023/04/13 04:14:11;;;;;;;63.10;29.10;;;;;;;4.81;84.68;99210.41;4210100;28;20240;-66
2023/04/13 04:16:37;;;;;;;64.17;30.60;;;;;;;4.78;84.79;99213.41;4224015;28;21920;-69
2023/04/13 04:19:04;;;;;;;61.73;31.13;;;;;;;4.80;85.08;99212.28;4227157;28;20231;-67
2023/04/13 04:21:34;;;;;;;62.10;29.87;;;;;;;4.90;85.09;99207.75;4237001;28;20235;-68
2023/04/13 04:24:05;;;;;;;69.03;30.57;;;;;;;5.03;84.77;99217.34;4231060;28;21434;-67
2023/04/13 04:26:32;;;;;;;64.67;29.27;;;;;;;5.16;84.75;99209.00;4229566;28;20333;-69
2023/04/13 04:29:02;;;;;;;67.17;30.70;;;;;;;5.41;84.20;99218.28;4236390;28;20694;-67
2023/04/13 04:31:33;;;;;;;58.77;28.37;;;;;;;5.47;83.73;99219.56;4227556;28;20671;-71
2023/04/13 04:34:03;;;;;;;65.50;28.57;;;;;;;5.51;83.82;99219.09;4213893;28;20247;-70
2023/04/13 04:36:30;;;;;;;57.63;28.33;;;;;;;5.54;84.09;99226.03;4244456;28;20231;-67
2023/04/13 04:39:00;;;;;;;71.60;31.40;;;;;;;5.61;84.19;99211.03;4229594;28;20251;-68
2023/04/13 04:41:29;;;;;;;60.67;29.73;;;;;;;5.66;84.08;99224.88;4249897;28;20259;-69
2023/04/13 04:44:01;;;;;;;69.60;31.13;;;;;;;5.64;84.04;99218.78;4245155;28;22905;-67
2023/04/13 04:46:28;;;;;;;61.50;29.07;;;;;;;5.70;84.22;99214.69;4230342;28;20288;-67
2023/04/13 04:48:59;;;;;;;57.37;27.63;;;;;;;5.79;84.10;99213.81;4226373;28;21342;-68
2023/04/13 04:51:26;;;;;;;57.67;28.10;;;;;;;5.84;83.80;99208.81;4230742;28;20770;-67
2023/04/13 04:53:53;;;;;;;60.70;28.50;;;;;;;5.96;83.91;99204.13;4245890;28;20238;-69
2023/04/13 04:56:20;;;;;;;58.83;29.70;;;;;;;6.13;83.31;99202.50;4224694;28;20235;-68
2023/04/13 04:58:47;;;;;;;61.63;28.60;;;;;;;6.32;83.25;99211.47;4226431;28;20243;-66
2023/04/13 05:01:14;;;;;;;51.30;25.80;;;;;;;6.61;81.98;99205.88;4227317;28;21664;-68
2023/04/13 05:03:41;;;;;;;62.77;27.10;;;;;;;6.73;81.52;99211.06;4222701;28;22019;-66
2023/04/13 05:06:08;;;;;;;60.93;26.80;;;;;;;6.56;81.63;99202.81;4230864;28;21190;-67
2023/04/13 05:08:34;;;;;;;48.63;24.57;;;;;;;6.49;81.28;99199.06;4226525;28;20227;-69
2023/04/13 05:11:04;;;;;;;51.73;24.80;;;;;;;6.54;81.18;99199.44;4213215;28;20768;-69
2023/04/13 05:13:31;;;;;;;54.30;25.67;;;;;;;6.66;80.01;99206.31;4227424;28;20292;-70
2023/04/13 05:15:58;;;;;;;47.97;24.00;;;;;;;7.03;79.70;99203.59;4220092;28;20437;-69
2023/04/13 05:18:24;;;;;;;49.57;23.40;;;;;;;6.82;78.29;99204.78;4227183;28;20310;-71
2023/04/13 05:20:51;;;;;;;45.50;22.13;;;;;;;6.87;79.42;99197.06;4226075;28;20297;-68
2023/04/13 05:23:18;;;;;;;51.37;24.07;;;;;;;7.13;78.67;99202.50;4232452;28;20417;-68
2023/04/13 05:25:45;;;;;;;44.80;22.73;;;;;;;7.05;77.64;99198.91;4224564;28;20396;-66
2023/04/13 05:28:11;;;;;;;49.30;23.70;;;;;;;6.84;77.94;99207.28;4211954;28;20302;-66
2023/04/13 05:30:38;;;;;;;46.47;22.13;;;;;;;7.04;78.02;99208.81;4223224;28;21462;-67
2023/04/13 05:33:05;;;;;;;45.17;22.60;;;;;;;7.23;77.19;99201.59;4229320;28;20231;-66
2023/04/13 05:35:32;;;;;;;41.00;20.67;;;;;;;7.48;77.06;99210.69;4219237;28;20239;-70
2023/04/13 05:37:59;;;;;;;46.53;21.23;;;;;;;7.75;76.84;99209.69;4221053;28;20219;-69
2023/04/13 05:40:27;;;;;;;43.83;22.10;;;;;;;7.67;75.25;99201.53;4230774;28;20254;-70
2023/04/13 05:42:55;;;;;;;45.00;22.73;;;;;;;7.50;76.69;99205.13;4230635;28;22033;-70
2023/04/13 05:45:21;;;;;;;43.83;21.57;;;;;;;8.09;75.35;99199.91;4219216;28;20824;-69
2023/04/13 05:47:49;;;;;;;50.60;25.20;;;;;;;8.33;73.75;99190.22;4217371;28;20413;-70
2023/04/13 05:50:15;;;;;;;43.10;20.50;;;;;;;8.36;73.31;99195.28;4226677;28;20242;-69
2023/04/13 05:52:42;;;;;;;38.63;20.60;;;;;;;8.24;73.69;99186.63;4218471;28;20228;-67
2023/04/13 05:55:10;;;;;;;35.20;18.77;;;;;;;8.10;73.18;99193.50;4234092;28;21017;-67
2023/04/13 05:57:37;;;;;;;40.10;19.63;;;;;;;8.09;73.60;99191.81;4234153;28;20393;-65
2023/04/13 06:00:06;;;;;;;40.37;18.17;;;;;;;8.13;72.89;99184.25;4220758;28;20430;-69
2023/04/13 06:02:35;;;;;;;39.87;19.47;;;;;;;8.32;72.65;99183.13;4218267;28;20293;-69
2023/04/13 06:05:03;;;;;;;40.20;19.33;;;;;;;8.36;72.13;99177.25;4230417;28;20610;-66
2023/04/13 06:07:30;;;;;;;35.17;17.40;;;;;;;8.44;71.90;99167.50;4229639;28;20252;-64
2023/04/13 06:09:59;;;;;;;35.30;17.73;;;;;;;8.52;71.25;99168.38;4227285;28;20231;-67
2023/04/13 06:12:26;;;;;;;34.00;16.90;;;;;;;8.57;70.59;99171.41;4232473;28;20231;-65
2023/04/13 06:14:53;;;;;;;32.13;16.93;;;;;;;8.67;69.96;99152.41;4208777;28;23193;-66
2023/04/13 06:17:20;;;;;;;30.80;16.17;;;;;;;8.81;69.64;99152.75;4201846;28;20544;-70
2023/04/13 06:19:47;;;;;;;28.43;15.17;;;;;;;9.04;68.93;99158.31;4200168;28;21815;-71
2023/04/13 06:22:13;;;;;;;28.97;14.97;;;;;;;9.19;68.63;99164.72;4212775;28;20232;-66
2023/04/13 06:24:40;;;;;;;31.07;15.00;;;;;;;9.27;67.36;99166.56;4195942;28;20228;-68
2023/04/13 06:27:07;;;;;;;25.37;12.77;;;;;;;9.38;66.25;99164.53;4190543;28;22138;-65
2023/04/13 06:29:34;;;;;;;27.23;14.00;;;;;;;9.70;65.16;99168.16;4202212;28;20248;-66
2023/04/13 06:32:01;;;;;;;24.93;12.17;;;;;;;9.74;64.17;99161.41;4198755;28;22038;-74
2023/04/13 06:34:29;;;;;;;22.67;13.47;;;;;;;9.88;63.91;99162.53;4204776;28;20510;-67
2023/04/13 06:36:56;;;;;;;20.60;11.63;;;;;;;9.76;64.16;99165.63;4219657;28;22062;-67
2023/04/13 06:39:23;;;;;;;21.83;11.30;;;;;;;9.72;63.39;99158.88;4216348;28;20531;-67
2023/04/13 06:41:52;;;;;;;20.67;11.40;;;;;;;10.00;62.08;99163.88;4197342;28;22558;-67
2023/04/13 06:44:19;;;;;;;19.90;11.67;;;;;;;10.25;61.96;99152.91;4211462;28;20255;-66
2023/04/13 06:46:46;;;;;;;22.57;12.43;;;;;;;10.30;62.02;99161.34;4209348;28;21803;-67
2023/04/13 06:49:13;;;;;;;24.47;12.57;;;;;;;10.65;60.02;99163.72;4203227;28;20573;-67
2023/04/13 06:51:39;;;;;;;20.70;10.20;;;;;;;11.55;58.09;99159.41;4203031;28;20419;-67
2023/04/13 06:54:06;;;;;;;23.97;12.37;;;;;;;11.81;57.62;99155.41;4204752;28;20247;-69
2023/04/13 06:56:33;;;;;;;20.53;11.23;;;;;;;14.60;51.67;99164.47;4195295;28;20246;-68
2023/04/13 06:59:01;;;;;;;20.77;11.57;;;;;;;15.97;45.65;99157.84;4211218;28;20484;-68
2023/04/13 07:01:29;;;;;;;26.90;11.90;;;;;;;16.92;42.78;99162.66;4209239;28;21591;-67
2023/04/13 07:03:56;;;;;;;23.97;11.80;;;;;;;18.87;39.23;99151.59;4202579;28;20298;-70
2023/04/13 07:06:23;;;;;;;18.73;10.77;;;;;;;20.82;35.53;99159.88;4204279;28;20564;-67
2023/04/13 07:08:49;;;;;;;18.93;11.23;;;;;;;21.96;32.73;99166.19;4212831;28;21709;-67
2023/04/13 07:11:16;;;;;;;24.47;11.47;;;;;;;23.33;30.71;99155.34;4198927;28;21119;-66
2023/04/13 07:13:43;;;;;;;16.07;10.57;;;;;;;23.42;30.26;99169.47;4197074;28;20276;-65
2023/04/13 07:16:11;;;;;;;21.30;12.07;;;;;;;22.86;30.76;99170.63;4230402;28;20323;-66
2023/04/13 07:18:37;;;;;;;19.47;11.07;;;;;;;24.46;29.33;99173.75;4225798;28;20232;-65
2023/04/13 07:21:04;;;;;;;20.80;12.20;;;;;;;25.42;27.69;99176.19;4218653;28;20227;-67
2023/04/13 07:23:32;;;;;;;21.40;11.70;;;;;;;25.12;27.80;99184.19;4223206;28;21441;-67
2023/04/13 07:26:00;;;;;;;17.60;11.13;;;;;;;26.13;26.70;99177.25;4240362;28;20400;-66
2023/04/13 07:28:27;;;;;;;23.20;13.17;;;;;;;25.72;26.29;99177.31;4235183;28;20595;-66
2023/04/13 07:30:53;;;;;;;21.13;12.47;;;;;;;27.59;24.43;99161.44;4234799;28;20238;-67
2023/04/13 07:33:20;;;;;;;24.53;13.47;;;;;;;26.98;24.27;99172.72;4247200;28;20976;-66
2023/04/13 07:35:49;;;;;;;26.60;12.70;;;;;;;25.60;27.09;99172.06;4238683;28;20234;-67
2023/04/13 07:38:15;;;;;;;23.83;13.33;;;;;;;24.71;28.35;99167.47;4218958;28;20246;-67
2023/04/13 07:40:42;;;;;;;20.10;11.97;;;;;;;25.15;27.71;99168.97;4223941;28;22284;-68
2023/04/13 07:43:09;;;;;;;21.13;12.80;;;;;;;26.94;24.86;99173.56;4268435;28;21356;-66
2023/04/13 07:45:36;;;;;;;20.88;12.07;;;;;;;25.36;26.87;99172.59;4238502;28;20318;-66
2023/04/13 07:48:04;;;;;;;24.73;13.13;;;;;;;27.12;24.42;99177.59;4235705;28;20963;-70
2023/04/13 07:50:31;;;;;;;20.40;13.35;;;;;;;27.22;24.24;99177.53;4245178;28;20885;-68
2023/04/13 07:52:58;;;;;;;24.27;13.63;;;;;;;21.70;31.68;99173.25;4252749;28;22862;-65
2023/04/13 07:55:25;;;;;;;20.27;12.10;;;;;;;23.21;30.36;99176.78;4229387;28;25384;-67
2023/04/13 07:57:52;;;;;;;24.90;13.30;;;;;;;25.98;26.31;99178.09;4232553;28;20338;-67
2023/04/13 08:00:21;;;;;;;21.77;13.13;;;;;;;25.00;27.68;99169.78;4274486;28;20302;-69
2023/04/13 08:02:48;;;;;;;25.47;13.03;;;;;;;24.66;27.90;99167.44;4261487;28;21787;-68
2023/04/13 08:05:16;;;;;;;22.13;13.60;;;;;;;24.80;27.67;99173.34;4262715;28;20754;-68
2023/04/13 08:07:45;;;;;;;23.93;14.67;;;;;;;23.23;29.50;99164.38;4266660;28;20358;-68
2023/04/13 08:10:12;;;;;;;25.57;13.23;;;;;;;22.62;30.30;99167.31;4227417;28;20411;-66
2023/04/13 08:12:38;;;;;;;22.97;13.23;;;;;;;21.81;31.14;99172.28;4262805;28;20344;-67
2023/04/13 08:15:06;;;;;;;20.80;12.43;;;;;;;19.74;34.52;99162.00;4261385;28;22304;-67
2023/04/13 08:17:34;;;;;;;19.43;10.97;;;;;;;19.56;35.19;99165.69;4228660;28;20294;-67
2023/04/13 08:20:04;;;;;;;27.10;12.53;;;;;;;18.60;36.80;99162.91;4270258;28;21313;-65
2023/04/13 08:22:31;;;;;;;21.20;12.67;;;;;;;17.36;38.80;99154.56;4241256;28;21293;-71
2023/04/13 08:24:58;;;;;;;23.03;12.57;;;;;;;16.86;40.13;99154.50;4230355;28;20255;-67
2023/04/13 08:27:25;;;;;;;24.37;11.97;;;;;;;17.38;39.59;99155.16;4226795;28;20238;-68
2023/04/13 08:29:55;;;;;;;21.03;10.50;;;;;;;18.11;38.60;99157.41;4228051;28;20251;-63
2023/04/13 08:32:22;;;;;;;23.23;12.03;;;;;;;18.78;37.00;99151.06;4248693;28;20322;-68
2023/04/13 08:34:49;;;;;;;21.13;12.40;;;;;;;17.73;38.74;99160.09;4235093;28;20260;-69
2023/04/13 08:37:16;;;;;;;18.27;10.30;;;;;;;18.10;37.76;99158.47;4226682;28;21643;-68
2023/04/13 08:39:42;;;;;;;19.80;10.57;;;;;;;18.04;37.66;99152.03;4234061;28;20237;-70
2023/04/13 08:42:09;;;;;;;18.47;10.57;;;;;;;17.92;38.31;99167.50;4225154;28;20288;-65
2023/04/13 08:44:39;;;;;;;25.17;10.33;;;;;;;18.15;37.76;99158.66;4231098;28;20235;-68
2023/04/13 08:47:06;;;;;;;21.10;10.27;;;;;;;17.54;38.65;99161.13;4220468;28;20975;-68
2023/04/13 08:49:33;;;;;;;18.63;10.23;;;;;;;17.50;38.48;99162.63;4243575;28;20870;-68
2023/04/13 08:52:04;;;;;;;19.53;10.10;;;;;;;17.01;39.13;99163.25;4240402;28;20376;-70
2023/04/13 08:54:31;;;;;;;18.87;9.43;;;;;;;16.76;39.47;99169.47;4232372;28;23009;-70
2023/04/13 08:56:58;;;;;;;17.03;8.87;;;;;;;16.53;40.17;99158.25;4219329;28;21641;-68
2023/04/13 08:59:27;;;;;;;22.43;11.00;;;;;;;16.34;40.87;99163.59;4245747;28;20253;-71
2023/04/13 09:01:54;;;;;;;18.07;10.83;;;;;;;16.41;42.09;99163.53;4235801;28;20670;-69
2023/04/13 09:04:23;;;;;;;21.30;9.87;;;;;;;16.82;40.48;99165.03;4235519;28;25089;-73
2023/04/13 09:06:51;;;;;;;19.27;10.77;;;;;;;16.95;39.60;99170.44;4244819;28;20241;-70
2023/04/13 09:09:19;;;;;;;19.70;9.97;;;;;;;16.19;41.56;99160.28;4263491;28;20240;-68
2023/04/13 09:11:46;;;;;;;14.83;8.33;;;;;;;16.46;41.21;99167.31;4262559;28;20226;-70
2023/04/13 09:14:20;;;;;;;16.50;8.57;;;;;;;17.29;39.54;99167.44;4257792;28;20276;-70
2023/04/13 09:16:48;;;;;;;14.30;8.63;;;;;;;17.28;39.33;99157.56;4242570;28;20277;-70
2023/04/13 09:19:16;;;;;;;19.60;9.23;;;;;;;17.37;39.25;99158.13;4257243;28;21899;-72
2023/04/13 09:21:44;;;;;;;17.47;9.70;;;;;;;16.95;41.38;99156.75;4238133;28;20278;-68
2023/04/13 09:24:11;;;;;;;17.53;9.83;;;;;;;16.50;41.48;99154.06;4254533;28;20401;-70
2023/04/13 09:26:42;;;;;;;19.40;10.07;;;;;;;16.91;42.34;99155.50;4230880;28;20246;-71
2023/04/13 09:29:13;;;;;;;21.13;9.27;;;;;;;17.56;38.96;99151.63;4226588;28;21065;-72
2023/04/13 09:31:40;;;;;;;16.57;9.70;;;;;;;17.20;39.77;99153.22;4216690;28;20692;-70
2023/04/13 09:34:10;;;;;;;18.33;10.33;;;;;;;16.96;40.79;99154.84;4217243;28;20242;-69
2023/04/13 09:36:38;;;;;;;20.00;10.40;;;;;;;16.89;41.22;99145.81;4230443;28;21097;-70
2023/04/13 09:39:26;;;;;;;17.53;10.57;;;;;;;16.92;40.51;99154.44;4256534;28;21027;-68
2023/04/13 09:41:54;;;;;;;17.63;9.87;;;;;;;15.94;41.45;99147.34;4224374;28;22028;-70
2023/04/13 09:44:33;;;;;;;22.57;10.07;;;;;;;15.95;41.04;99155.31;4244404;28;22351;-67
2023/04/13 09:47:01;;;;;;;14.60;9.03;;;;;;;15.52;44.25;99153.06;4222022;28;20231;-67
2023/04/13 09:49:41;;;;;;;18.43;9.30;;;;;;;16.01;41.81;99150.88;4222508;28;20701;-71
2023/04/13 09:52:21;;;;;;;16.40;9.53;;;;;;;15.44;42.42;99148.66;4214392;28;20319;-70
2023/04/13 09:54:58;;;;;;;15.80;9.07;;;;;;;15.89;42.93;99153.44;4214500;28;20231;-69
2023/04/13 09:57:29;;;;;;;20.10;8.37;;;;;;;16.40;40.75;99150.94;4250405;28;20550;-69
2023/04/13 09:59:59;;;;;;;16.07;8.43;;;;;;;16.37;40.31;99146.75;4231826;28;21779;-67
2023/04/13 10:02:27;;;;;;;15.83;7.90;;;;;;;16.29;40.79;99150.59;4216307;28;22162;-70
2023/04/13 10:04:54;;;;;;;20.07;8.20;;;;;;;16.34;42.42;99158.13;4252202;28;20247;-68
2023/04/13 10:07:25;;;;;;;15.80;8.13;;;;;;;16.34;40.55;99157.28;4248852;28;20358;-69
2023/04/13 10:09:52;;;;;;;14.10;7.70;;;;;;;16.63;39.26;99153.97;4236627;28;20778;-71
2023/04/13 10:12:19;;;;;;;14.47;6.73;;;;;;;16.49;38.64;99155.09;4229739;28;20233;-70
2023/04/13 10:14:47;;;;;;;12.17;7.40;;;;;;;16.41;39.33;99156.19;4246721;28;20258;-67
2023/04/13 10:17:41;;;;;;;12.67;6.67;;;;;;;16.35;38.77;99157.06;4226792;28;23643;-68
2023/04/13 10:20:12;;;;;;;13.17;7.10;;;;;;;16.24;39.34;99164.03;4227598;28;20245;-70
2023/04/13 10:22:42;;;;;;;15.23;6.67;;;;;;;16.33;39.08;99167.38;4204980;28;20250;-71
2023/04/13 10:25:13;;;;;;;13.80;7.23;;;;;;;15.66;40.33;99162.06;4212628;28;22937;-70
2023/04/13 10:27:58;;;;;;;15.67;7.10;;;;;;;16.53;39.41;99169.16;4241254;28;23722;-70
2023/04/13 10:30:26;;;;;;;11.53;5.83;;;;;;;16.68;37.97;99168.88;4232850;28;20239;-67
2023/04/13 10:33:05;;;;;;;12.73;6.33;;;;;;;16.70;37.80;99169.50;4218139;28;22312;-69
2023/04/13 10:35:36;;;;;;;13.03;7.00;;;;;;;15.78;40.50;99165.81;4238043;28;21478;-68
2023/04/13 10:38:03;;;;;;;12.77;7.10;;;;;;;16.33;40.94;99164.66;4224128;28;20224;-70
2023/04/13 10:40:50;;;;;;;14.90;7.37;;;;;;;16.77;39.84;99159.34;4228823;28;22768;-67
2023/04/13 10:43:28;;;;;;;12.63;6.03;;;;;;;17.05;36.53;99160.91;4246432;28;22630;-70
2023/04/13 10:46:08;;;;;;;13.27;7.40;;;;;;;16.83;37.01;99161.22;4232927;28;20300;-71
2023/04/13 10:48:35;;;;;;;11.43;6.30;;;;;;;17.03;35.94;99166.56;4205058;28;20266;-70
2023/04/13 10:51:03;;;;;;;10.80;5.83;;;;;;;17.23;35.67;99169.16;4231009;28;20235;-71
2023/04/13 10:53:31;;;;;;;11.97;5.87;;;;;;;17.03;35.21;99161.09;4235035;28;20241;-68
2023/04/13 10:55:59;;;;;;;13.63;6.83;;;;;;;16.73;36.83;99161.69;4251010;28;20621;-71
2023/04/13 10:58:27;;;;;;;11.83;5.80;;;;;;;16.85;36.85;99158.28;4224816;28;20239;-70
2023/04/13 11:00:57;;;;;;;11.43;6.73;;;;;;;16.16;36.77;99150.66;4249558;28;20246;-67
2023/04/13 11:03:27;;;;;;;11.47;5.57;;;;;;;16.05;38.06;99152.13;4243223;28;21843;-70
2023/04/13 11:05:57;;;;;;;10.70;5.93;;;;;;;16.46;37.62;99156.38;4218258;28;21200;-71
2023/04/13 11:08:24;;;;;;;12.27;6.60;;;;;;;16.42;37.18;99151.56;4234686;28;21365;-69
2023/04/13 11:10:51;;;;;;;17.20;6.07;;;;;;;16.61;37.28;99152.53;4234907;28;20645;-67
2023/04/13 11:13:18;;;;;;;9.43;5.47;;;;;;;17.02;36.27;99154.00;4219335;28;20341;-69
2023/04/13 11:15:45;;;;;;;21.60;9.63;;;;;;;17.12;36.60;99150.75;4232233;28;20678;-66
2023/04/13 11:18:12;;;;;;;15.33;5.67;;;;;;;17.14;36.21;99147.78;4218240;28;20314;-70
2023/04/13 11:20:40;;;;;;;22.33;10.30;;;;;;;16.72;36.56;99149.09;4227281;28;20933;-69
2023/04/13 11:23:17;;;;;;;7.87;5.10;;;;;;;16.16;37.35;99143.28;4244012;28;20229;-72
2023/04/13 11:25:58;;;;;;;13.03;6.10;;;;;;;17.01;36.96;99141.38;4229785;28;20332;-69
2023/04/13 11:28:38;;;;;;;11.03;4.53;;;;;;;17.04;36.02;99148.28;4209528;28;20235;-67
2023/04/13 11:31:06;;;;;;;11.30;4.77;;;;;;;17.16;35.21;99143.78;4234658;28;20790;-69